createdAt,value
2023-04-22T00:01:57.263Z,14.10
2023-04-22T00:04:23.736Z,14.00
2023-04-22T00:06:50.342Z,13.73
2023-04-22T00:09:16.829Z,13.70
2023-04-22T00:11:43.304Z,13.63
2023-04-22T00:14:09.726Z,13.10
2023-04-22T00:16:36.441Z,14.10
2023-04-22T00:19:04.415Z,13.87
2023-04-22T00:21:31.009Z,14.20
2023-04-22T00:23:57.454Z,14.40
2023-04-22T00:26:24.345Z,14.00
2023-04-22T00:28:50.853Z,15.20
2023-04-22T00:31:17.462Z,14.70
2023-04-22T00:33:43.933Z,14.20
2023-04-22T00:36:10.869Z,14.23
2023-04-22T00:38:37.446Z,14.40
2023-04-22T00:41:04.534Z,14.93
2023-04-22T00:43:31.271Z,15.07
2023-04-22T00:45:58.051Z,14.20
2023-04-22T00:48:26.860Z,15.13
2023-04-22T00:50:55.169Z,14.37
2023-04-22T00:53:21.763Z,15.00
2023-04-22T00:55:48.473Z,14.73
2023-04-22T00:58:14.937Z,15.53
2023-04-22T01:00:41.624Z,14.73
2023-04-22T01:03:08.410Z,15.07
2023-04-22T01:05:35.771Z,15.07
2023-04-22T01:08:02.536Z,15.93
2023-04-22T01:10:29.251Z,15.93
2023-04-22T01:12:56.014Z,16.60
2023-04-22T01:15:22.750Z,16.90
2023-04-22T01:17:49.506Z,18.13
2023-04-22T01:20:57.663Z,16.90
2023-04-22T01:23:49.843Z,17.47
2023-04-22T01:26:16.516Z,16.90
2023-04-22T01:28:43.120Z,15.97
2023-04-22T01:31:09.694Z,17.40
2023-04-22T01:33:36.594Z,19.60
2023-04-22T01:36:03.508Z,17.50
2023-04-22T01:38:33.436Z,17.80
2023-04-22T01:41:04.390Z,17.13
2023-04-22T01:43:31.612Z,18.77
2023-04-22T01:45:58.353Z,17.17
2023-04-22T01:48:25.158Z,16.73
2023-04-22T01:50:51.705Z,17.13
2023-04-22T01:53:18.302Z,16.83
2023-04-22T01:55:45.051Z,16.77
2023-04-22T01:58:11.728Z,17.43
2023-04-22T02:00:38.375Z,16.67
2023-04-22T02:03:05.630Z,15.83
2023-04-22T02:05:32.417Z,15.97
2023-04-22T02:07:59.014Z,16.50
2023-04-22T02:10:25.531Z,15.83
2023-04-22T02:12:52.305Z,16.37
2023-04-22T02:15:19.252Z,16.40
2023-04-22T02:20:48.807Z,16.50
2023-04-22T02:23:15.812Z,16.20
2023-04-22T02:25:48.655Z,16.17
2023-04-22T02:28:16.155Z,16.43
2023-04-22T02:30:42.928Z,16.43
2023-04-22T02:33:09.748Z,16.47
2023-04-22T02:35:36.570Z,16.40
2023-04-22T02:38:03.460Z,16.57
2023-04-22T02:40:30.446Z,17.27
2023-04-22T02:42:57.543Z,16.67
2023-04-22T02:45:24.419Z,17.13
2023-04-22T02:47:51.308Z,17.90
2023-04-22T02:50:18.208Z,17.47
2023-04-22T02:52:44.855Z,17.47
2023-04-22T02:55:11.550Z,17.37
2023-04-22T02:57:38.429Z,17.20
2023-04-22T03:00:05.679Z,17.47
2023-04-22T03:02:32.527Z,18.40
2023-04-22T03:05:00.919Z,17.67
2023-04-22T03:07:27.477Z,18.10
2023-04-22T03:09:55.857Z,17.87
2023-04-22T03:12:22.379Z,17.50
2023-04-22T03:14:48.920Z,18.37
2023-04-22T03:17:15.523Z,17.87
2023-04-22T03:19:42.453Z,17.90
2023-04-22T03:22:09.322Z,18.27
2023-04-22T03:24:35.981Z,18.70
2023-04-22T03:27:03.962Z,19.37
2023-04-22T03:29:30.567Z,18.27
2023-04-22T03:31:57.083Z,17.90
2023-04-22T03:34:23.704Z,18.13
2023-04-22T03:36:50.138Z,17.97
2023-04-22T03:39:16.726Z,17.90
2023-04-22T03:41:43.685Z,17.73
2023-04-22T03:44:11.030Z,18.03
2023-04-22T03:46:37.629Z,17.87
2023-04-22T03:49:04.570Z,17.00
2023-04-22T03:51:31.837Z,17.43
2023-04-22T03:53:58.569Z,17.20
2023-04-22T03:56:25.471Z,17.03
2023-04-22T03:58:52.071Z,17.33
2023-04-22T04:01:19.117Z,17.37
2023-04-22T04:03:45.822Z,17.43
2023-04-22T04:06:12.518Z,17.50
2023-04-22T04:08:38.943Z,17.20
2023-04-22T04:11:05.513Z,17.97
2023-04-22T04:13:32.202Z,18.57
2023-04-22T04:16:00.163Z,18.20
2023-04-22T04:18:27.101Z,18.80
2023-04-22T04:20:53.502Z,18.53
2023-04-22T04:23:20.037Z,18.77
2023-04-22T04:25:46.627Z,18.40
2023-04-22T04:28:13.956Z,18.10
2023-04-22T04:30:41.787Z,17.90
2023-04-22T04:33:08.613Z,18.10
2023-04-22T04:35:36.256Z,17.87
2023-04-22T04:38:03.148Z,18.30
2023-04-22T04:40:30.729Z,18.13
2023-04-22T04:43:02.593Z,18.23
2023-04-22T04:47:57.144Z,18.20
2023-04-22T04:50:23.903Z,17.03
2023-04-22T04:52:50.843Z,17.23
2023-04-22T04:55:19.151Z,18.23
2023-04-22T04:57:46.606Z,17.30
2023-04-22T05:00:16.587Z,16.20
2023-04-22T05:02:43.421Z,15.43
2023-04-22T05:05:10.395Z,15.40
2023-04-22T05:07:36.979Z,15.73
2023-04-22T05:10:04.368Z,16.10
2023-04-22T05:12:31.167Z,15.40
2023-04-22T05:14:57.740Z,14.93
2023-04-22T05:17:24.988Z,14.83
2023-04-22T05:19:51.493Z,14.30
2023-04-22T05:22:18.354Z,14.87
2023-04-22T05:24:45.475Z,14.10
2023-04-22T05:27:11.998Z,13.27
2023-04-22T05:29:38.703Z,13.50
2023-04-22T05:32:07.739Z,13.23
2023-04-22T05:34:35.716Z,12.80
2023-04-22T05:37:05.782Z,13.38
2023-04-22T05:39:32.445Z,13.27
2023-04-22T05:41:58.954Z,13.67
2023-04-22T05:44:25.487Z,12.43
2023-04-22T05:46:51.973Z,13.00
2023-04-22T05:49:18.492Z,12.70
2023-04-22T05:51:45.560Z,12.85
2023-04-22T05:54:12.038Z,12.70
2023-04-22T05:56:38.577Z,12.80
2023-04-22T05:59:05.205Z,12.65
2023-04-22T06:01:32.124Z,13.15
2023-04-22T06:03:58.853Z,12.10
2023-04-22T06:06:26.023Z,11.48
2023-04-22T06:08:52.765Z,11.32
2023-04-22T06:11:20.066Z,11.52
2023-04-22T06:13:46.499Z,11.32
2023-04-22T06:16:12.986Z,11.15
2023-04-22T06:18:39.500Z,11.25
2023-04-22T06:21:06.372Z,11.75
2023-04-22T06:23:33.311Z,11.40
2023-04-22T06:26:01.582Z,11.13
2023-04-22T06:28:28.435Z,11.43
2023-04-22T06:30:54.882Z,11.20
2023-04-22T06:33:21.581Z,11.30
2023-04-22T06:35:48.039Z,11.20
2023-04-22T06:38:14.745Z,11.32
2023-04-22T06:40:41.266Z,10.80
2023-04-22T06:43:07.631Z,11.57
2023-04-22T06:45:34.482Z,10.95
2023-04-22T06:48:01.356Z,10.75
2023-04-22T06:50:28.027Z,10.23
2023-04-22T06:52:54.695Z,10.50
2023-04-22T06:55:21.737Z,10.00
2023-04-22T06:57:48.379Z,10.15
2023-04-22T07:00:15.488Z,10.30
2023-04-22T07:02:42.211Z,9.77
2023-04-22T07:05:09.202Z,9.77
2023-04-22T07:07:36.685Z,10.02
2023-04-22T07:10:04.482Z,9.90
2023-04-22T07:12:31.218Z,9.38
2023-04-22T07:14:57.649Z,9.75
2023-04-22T07:17:24.222Z,9.77
2023-04-22T07:19:51.017Z,9.73
2023-04-22T07:22:17.606Z,9.27
2023-04-22T07:24:44.084Z,9.73
2023-04-22T07:27:10.824Z,9.30
2023-04-22T07:29:37.618Z,9.93
2023-04-22T07:32:04.786Z,9.18
2023-04-22T07:34:32.275Z,9.70
2023-04-22T07:36:58.718Z,9.55
2023-04-22T07:39:25.229Z,9.45
2023-04-22T07:41:51.711Z,9.65
2023-04-22T07:44:21.570Z,10.05
2023-04-22T07:46:49.030Z,8.90
2023-04-22T07:49:16.784Z,9.77
2023-04-22T07:51:44.569Z,8.98
2023-04-22T07:54:11.162Z,9.57
2023-04-22T07:56:37.846Z,8.32
2023-04-22T07:59:04.344Z,9.30
2023-04-22T08:01:30.884Z,9.23
2023-04-22T08:03:57.492Z,8.52
2023-04-22T08:06:24.263Z,9.35
2023-04-22T08:08:50.681Z,9.27
2023-04-22T08:11:18.007Z,9.85
2023-04-22T08:13:44.576Z,8.95
2023-04-22T08:16:11.040Z,9.13
2023-04-22T08:18:37.491Z,8.77
2023-04-22T08:21:04.376Z,8.82
2023-04-22T08:23:30.895Z,8.77
2023-04-22T08:25:57.936Z,9.30
2023-04-22T08:28:24.719Z,9.23
2023-04-22T08:30:51.156Z,8.43
2023-04-22T08:33:18.896Z,9.07
2023-04-22T08:35:45.600Z,9.20
2023-04-22T08:38:12.195Z,8.70
2023-04-22T08:40:41.501Z,9.27
2023-04-22T08:43:08.788Z,8.73
2023-04-22T08:45:38.620Z,8.63
2023-04-22T08:48:05.757Z,9.15
2023-04-22T08:50:32.977Z,9.00
2023-04-22T08:52:59.907Z,8.57
2023-04-22T08:55:26.588Z,9.27
2023-04-22T08:57:54.078Z,8.77
2023-04-22T09:00:20.927Z,8.50
2023-04-22T09:02:48.354Z,8.63
2023-04-22T09:05:15.333Z,8.10
2023-04-22T09:07:42.538Z,8.45
2023-04-22T09:10:11.821Z,8.00
2023-04-22T09:12:39.150Z,8.45
2023-04-22T09:15:07.321Z,7.75
2023-04-22T09:17:35.420Z,8.38
2023-04-22T09:20:03.261Z,8.27
2023-04-22T09:22:39.799Z,8.48
2023-04-22T09:25:08.163Z,8.20
2023-04-22T09:27:35.410Z,7.55
2023-04-22T09:30:06.981Z,7.68
2023-04-22T09:32:33.566Z,7.35
2023-04-22T09:35:01.015Z,8.20
2023-04-22T09:37:36.084Z,8.50
2023-04-22T09:40:16.018Z,6.80
2023-04-22T09:42:52.843Z,6.53
2023-04-22T09:45:30.218Z,7.05
2023-04-22T09:47:58.065Z,6.47
2023-04-22T09:50:25.938Z,7.40
2023-04-22T09:52:56.791Z,8.20
2023-04-22T09:55:25.055Z,7.03
2023-04-22T09:57:54.022Z,6.15
2023-04-22T10:00:21.915Z,6.13
2023-04-22T10:02:48.666Z,6.22
2023-04-22T10:05:15.514Z,5.95
2023-04-22T10:07:42.590Z,5.47
2023-04-22T10:10:09.492Z,6.30
2023-04-22T10:12:36.840Z,6.43
2023-04-22T10:15:07.767Z,6.22
2023-04-22T10:17:37.559Z,5.90
2023-04-22T10:20:07.875Z,6.15
2023-04-22T10:22:35.301Z,5.90
2023-04-22T10:25:01.974Z,6.18
2023-04-22T10:27:28.699Z,6.43
2023-04-22T10:29:56.466Z,6.15
2023-04-22T10:32:23.106Z,5.82
2023-04-22T10:34:50.402Z,5.88
2023-04-22T10:37:21.629Z,6.10
2023-04-22T10:40:09.757Z,5.30
2023-04-22T10:42:37.018Z,6.07
2023-04-22T10:45:04.893Z,6.28
2023-04-22T10:47:33.076Z,5.70
2023-04-22T10:50:27.290Z,5.40
2023-04-22T10:53:21.334Z,5.22
2023-04-22T10:55:52.742Z,5.03
2023-04-22T10:58:20.460Z,5.25
2023-04-22T11:03:26.926Z,5.78
2023-04-22T11:06:16.163Z,5.60
2023-04-22T11:08:46.854Z,5.40
2023-04-22T11:11:16.220Z,5.80
2023-04-22T11:13:47.369Z,5.22
2023-04-22T11:16:14.039Z,5.63
2023-04-22T11:18:41.072Z,6.10
2023-04-22T11:21:08.814Z,5.80
2023-04-22T11:23:36.285Z,5.82
2023-04-22T11:26:04.914Z,5.95
2023-04-22T11:28:32.051Z,5.85
2023-04-22T11:31:02.973Z,6.07
2023-04-22T11:33:29.458Z,5.38
2023-04-22T11:35:57.821Z,6.22
2023-04-22T11:38:24.301Z,5.93
2023-04-22T11:40:50.753Z,5.45
2023-04-22T11:43:18.878Z,6.05
2023-04-22T11:45:45.527Z,5.90
2023-04-22T11:48:12.188Z,5.38
2023-04-22T11:50:40.724Z,5.30
2023-04-22T11:53:18.762Z,5.35
2023-04-22T11:55:46.890Z,5.72
2023-04-22T11:58:23.883Z,5.38
2023-04-22T12:00:51.834Z,4.82
2023-04-22T12:03:19.516Z,5.10
2023-04-22T12:05:52.980Z,5.80
2023-04-22T12:08:21.883Z,5.30
2023-04-22T12:10:54.559Z,5.63
2023-04-22T12:13:33.353Z,5.13
2023-04-22T12:16:04.875Z,5.30
2023-04-22T12:18:33.128Z,5.45
2023-04-22T12:21:01.386Z,5.22
2023-04-22T12:23:28.533Z,5.90
2023-04-22T12:25:54.921Z,5.32
2023-04-22T12:28:21.612Z,5.60
2023-04-22T12:30:48.187Z,6.10
2023-04-22T12:33:15.263Z,6.55
2023-04-22T12:35:41.730Z,6.25
2023-04-22T12:38:08.472Z,6.07
2023-04-22T12:40:34.934Z,6.32
2023-04-22T12:43:03.425Z,6.70
2023-04-22T12:45:29.802Z,6.40
2023-04-22T12:47:56.322Z,6.40
2023-04-22T12:50:22.818Z,6.50
2023-04-22T12:52:49.287Z,6.32
2023-04-22T12:55:15.845Z,6.32
2023-04-22T12:57:42.416Z,6.25
2023-04-22T13:00:14.382Z,6.53
2023-04-22T13:02:42.747Z,6.32
2023-04-22T13:05:10.406Z,6.30
2023-04-22T13:07:37.732Z,6.75
2023-04-22T13:10:05.626Z,6.55
2023-04-22T13:12:32.232Z,6.22
2023-04-22T13:14:58.723Z,5.95
2023-04-22T13:17:26.190Z,5.70
2023-04-22T13:19:52.708Z,5.72
2023-04-22T13:22:19.238Z,5.65
2023-04-22T13:24:45.839Z,6.18
2023-04-22T13:27:13.074Z,9.48
2023-04-22T13:29:39.699Z,6.20
2023-04-22T13:32:06.534Z,5.90
2023-04-22T13:34:33.019Z,6.78
2023-04-22T13:36:59.816Z,6.60
2023-04-22T13:39:26.740Z,7.22
2023-04-22T13:41:53.895Z,6.60
2023-04-22T13:44:20.431Z,6.68
2023-04-22T13:46:47.309Z,6.38
2023-04-22T13:49:13.928Z,5.63
2023-04-22T13:51:40.471Z,5.63
2023-04-22T13:54:07.187Z,5.43
2023-04-22T13:56:34.091Z,5.47
2023-04-22T13:59:01.092Z,4.95
2023-04-22T14:01:27.845Z,5.40
2023-04-22T14:03:54.966Z,6.00
2023-04-22T14:06:21.760Z,5.50
2023-04-22T14:08:48.218Z,5.85
2023-04-22T14:11:14.723Z,5.30
2023-04-22T14:13:41.354Z,5.60
2023-04-22T14:16:09.872Z,4.93
2023-04-22T14:18:37.664Z,5.32
2023-04-22T14:21:07.377Z,5.13
2023-04-22T14:23:34.347Z,4.97
2023-04-22T14:26:00.923Z,5.57
2023-04-22T14:28:27.792Z,5.03
2023-04-22T14:30:55.477Z,5.40
2023-04-22T14:33:24.621Z,5.13
2023-04-22T14:35:52.806Z,6.03
2023-04-22T14:38:20.912Z,5.53
2023-04-22T14:40:48.532Z,5.45
2023-04-22T14:43:17.119Z,5.63
2023-04-22T14:45:44.186Z,5.65
2023-04-22T14:48:12.379Z,5.38
2023-04-22T14:50:39.118Z,5.75
2023-04-22T14:53:06.144Z,5.25
2023-04-22T14:55:32.783Z,6.03
2023-04-22T14:57:59.305Z,6.03
2023-04-22T15:00:26.573Z,5.70
2023-04-22T15:02:54.406Z,5.47
2023-04-22T15:05:22.293Z,6.05
2023-04-22T15:07:48.994Z,5.70
2023-04-22T15:10:16.778Z,5.45
2023-04-22T15:12:43.874Z,5.72
2023-04-22T15:15:13.274Z,5.70
2023-04-22T15:17:40.821Z,5.38
2023-04-22T15:20:09.221Z,6.10
2023-04-22T15:22:36.172Z,5.80
2023-04-22T15:25:03.787Z,5.88
2023-04-22T15:27:30.591Z,6.03
2023-04-22T15:29:57.677Z,6.20
2023-04-22T15:32:24.138Z,6.00
2023-04-22T15:34:50.695Z,6.22
2023-04-22T15:37:17.081Z,6.57
2023-04-22T15:39:43.642Z,6.20
2023-04-22T15:42:10.156Z,6.22
2023-04-22T15:44:36.656Z,6.00
2023-04-22T15:47:03.711Z,6.40
2023-04-22T15:49:30.224Z,6.40
2023-04-22T15:51:57.508Z,6.22
2023-04-22T15:54:23.968Z,6.55
2023-04-22T15:56:50.467Z,6.82
2023-04-22T15:59:16.966Z,6.22
2023-04-22T16:01:45.847Z,6.90
2023-04-22T16:04:13.162Z,7.20
2023-04-22T16:06:40.516Z,8.73
2023-04-22T16:09:06.933Z,7.68
2023-04-22T16:11:33.447Z,7.90
2023-04-22T16:13:59.862Z,7.25
2023-04-22T16:16:26.378Z,7.18
2023-04-22T16:18:53.110Z,7.22
2023-04-22T16:21:19.653Z,7.53
2023-04-22T16:23:46.096Z,7.38
2023-04-22T16:26:12.657Z,7.32
2023-04-22T16:28:39.122Z,7.63
2023-04-22T16:31:05.675Z,7.60
2023-04-22T16:33:33.104Z,8.00
2023-04-22T16:35:59.619Z,7.75
2023-04-22T16:38:26.036Z,8.30
2023-04-22T16:40:54.204Z,7.93
2023-04-22T16:43:20.850Z,8.27
2023-04-22T16:45:47.493Z,8.43
2023-04-22T16:48:14.150Z,7.97
2023-04-22T16:50:40.695Z,8.93
2023-04-22T16:53:08.747Z,8.82
2023-04-22T16:55:36.954Z,8.60
2023-04-22T16:58:03.950Z,7.93
2023-04-22T17:00:30.754Z,7.97
2023-04-22T17:02:57.339Z,8.52
2023-04-22T17:05:23.857Z,8.13
2023-04-22T17:07:50.407Z,8.48
2023-04-22T17:10:16.946Z,10.07
2023-04-22T17:12:44.016Z,11.98
2023-04-22T17:15:12.021Z,8.15
2023-04-22T17:17:38.448Z,7.68
2023-04-22T17:20:06.646Z,7.57
2023-04-22T17:22:33.291Z,8.27
2023-04-22T17:24:59.786Z,8.35
2023-04-22T17:27:26.493Z,8.05
2023-04-22T17:29:53.350Z,7.43
2023-04-22T17:32:19.867Z,8.13
2023-04-22T17:34:46.276Z,7.80
2023-04-22T17:37:12.651Z,7.75
2023-04-22T17:39:40.327Z,7.25
2023-04-22T17:42:06.789Z,7.88
2023-04-22T17:44:33.401Z,7.50
2023-04-22T17:46:59.930Z,8.18
2023-04-22T17:49:26.488Z,8.02
2023-04-22T17:51:53.777Z,7.70
2023-04-22T17:54:20.327Z,8.15
2023-04-22T17:56:47.155Z,7.82
2023-04-22T17:59:14.315Z,7.95
2023-04-22T18:01:40.922Z,9.20
2023-04-22T18:04:07.509Z,8.48
2023-04-22T18:06:33.991Z,9.57
2023-04-22T18:09:00.772Z,8.63
2023-04-22T18:11:28.029Z,9.60
2023-04-22T18:13:55.196Z,10.77
2023-04-22T18:16:21.629Z,9.90
2023-04-22T18:18:48.173Z,10.45
2023-04-22T18:21:14.947Z,10.13
2023-04-22T18:23:41.410Z,10.95
2023-04-22T18:26:11.198Z,11.00
2023-04-22T18:28:40.236Z,13.02
2023-04-22T18:31:07.977Z,13.15
2023-04-22T18:33:34.611Z,12.48
2023-04-22T18:36:01.264Z,12.60
2023-04-22T18:38:27.859Z,13.20
2023-04-22T18:40:55.461Z,11.82
2023-04-22T18:43:22.317Z,11.48
2023-04-22T18:45:48.869Z,11.77
2023-04-22T18:48:15.850Z,12.20
2023-04-22T18:50:42.381Z,12.15
2023-04-22T18:53:08.823Z,12.00
2023-04-22T18:55:35.450Z,13.55
2023-04-22T18:58:01.892Z,15.15
2023-04-22T19:00:28.522Z,18.25
2023-04-22T19:02:55.016Z,21.73
2023-04-22T19:05:21.623Z,23.52
2023-04-22T19:07:48.070Z,25.77
2023-04-22T19:10:14.552Z,26.67
2023-04-22T19:12:41.614Z,23.85
2023-04-22T19:15:08.473Z,18.75
2023-04-22T19:17:35.018Z,16.55
2023-04-22T19:20:01.545Z,14.90
2023-04-22T19:22:28.038Z,13.43
2023-04-22T19:24:54.578Z,14.02
2023-04-22T19:27:21.479Z,14.57
2023-04-22T19:29:53.381Z,14.35
2023-04-22T19:32:20.730Z,15.02
2023-04-22T19:34:47.636Z,15.20
2023-04-22T19:37:14.280Z,18.42
2023-04-22T19:39:41.071Z,18.77
2023-04-22T19:42:07.796Z,18.00
2023-04-22T19:44:34.281Z,18.25
2023-04-22T19:47:01.237Z,19.67
2023-04-22T19:49:28.560Z,18.73
2023-04-22T19:51:55.976Z,18.50
2023-04-22T19:54:22.910Z,17.67
2023-04-22T19:56:49.440Z,18.35
2023-04-22T19:59:16.082Z,16.83
2023-04-22T20:01:42.855Z,18.48
2023-04-22T20:04:09.773Z,18.58
2023-04-22T20:06:36.535Z,19.15
2023-04-22T20:09:05.722Z,19.52
2023-04-22T20:11:32.785Z,19.88
2023-04-22T20:13:59.924Z,19.67
2023-04-22T20:16:27.063Z,19.15
2023-04-22T20:18:54.420Z,18.60
2023-04-22T20:21:21.415Z,18.77
2023-04-22T20:23:50.560Z,18.85
2023-04-22T20:26:19.843Z,19.80
2023-04-22T20:28:48.673Z,19.25
2023-04-22T20:31:18.378Z,19.00
2023-04-22T20:33:45.059Z,19.52
2023-04-22T20:36:14.733Z,18.73
2023-04-22T20:38:41.604Z,19.45
2023-04-22T20:41:09.714Z,20.77
2023-04-22T20:43:36.527Z,20.92
2023-04-22T20:46:03.234Z,18.58
2023-04-22T20:48:29.846Z,19.83
2023-04-22T20:50:56.382Z,18.48
2023-04-22T20:53:23.759Z,17.90
2023-04-22T20:55:50.905Z,20.48
2023-04-22T20:58:17.334Z,17.85
2023-04-22T21:00:43.964Z,17.92
2023-04-22T21:03:11.511Z,20.13
2023-04-22T21:05:42.514Z,18.15
2023-04-22T21:08:26.116Z,18.33
2023-04-22T21:10:55.127Z,18.50
2023-04-22T21:13:22.236Z,18.08
2023-04-22T21:15:58.144Z,17.70
2023-04-22T21:18:26.199Z,17.50
2023-04-22T21:20:53.149Z,17.88
2023-04-22T21:23:20.599Z,17.00
2023-04-22T21:25:50.822Z,16.30
2023-04-22T21:28:18.291Z,16.40
2023-04-22T21:30:44.931Z,16.40
2023-04-22T21:33:11.337Z,17.10
2023-04-22T21:35:39.307Z,16.10
2023-04-22T21:38:05.815Z,16.50
2023-04-22T21:40:32.229Z,16.63
2023-04-22T21:43:00.119Z,16.60
2023-04-22T21:45:27.424Z,16.83
2023-04-22T21:47:54.028Z,17.25
2023-04-22T21:50:21.100Z,16.40
2023-04-22T21:52:48.767Z,17.35
2023-04-22T21:55:15.341Z,16.98
2023-04-22T21:57:41.772Z,17.08
2023-04-22T22:00:15.563Z,17.02
2023-04-22T22:02:44.492Z,16.67
2023-04-22T22:05:11.998Z,16.83
2023-04-22T22:07:40.608Z,16.55
2023-04-22T22:10:08.911Z,16.83
2023-04-22T22:12:35.930Z,17.27
2023-04-22T22:15:04.366Z,15.80
2023-04-22T22:17:31.847Z,16.05
2023-04-22T22:19:58.255Z,16.15
2023-04-22T22:22:24.658Z,15.75
2023-04-22T22:24:52.696Z,15.10
2023-04-22T22:27:19.384Z,15.93
2023-04-22T22:29:46.577Z,15.73
2023-04-22T22:32:13.398Z,15.55
2023-04-22T22:34:40.265Z,15.75
2023-04-22T22:37:07.026Z,16.20
2023-04-22T22:39:33.450Z,15.25
2023-04-22T22:41:59.951Z,15.63
2023-04-22T22:44:26.414Z,15.45
2023-04-22T22:46:52.960Z,14.20
2023-04-22T22:49:19.777Z,14.80
2023-04-22T22:51:46.244Z,15.20
2023-04-22T22:54:12.708Z,14.80
2023-04-22T22:56:39.137Z,14.35
2023-04-22T22:59:05.774Z,13.73
2023-04-22T23:01:32.390Z,13.80
2023-04-22T23:03:59.982Z,14.05
2023-04-22T23:06:27.413Z,14.80
2023-04-22T23:08:54.026Z,14.95
2023-04-22T23:11:20.482Z,14.38
2023-04-22T23:13:47.951Z,14.70
2023-04-22T23:16:15.575Z,13.75
2023-04-22T23:18:43.409Z,14.07
2023-04-22T23:21:10.392Z,13.70
2023-04-22T23:23:37.763Z,14.43
2023-04-22T23:26:04.616Z,14.07
2023-04-22T23:28:31.484Z,13.30
2023-04-22T23:30:58.345Z,13.80
2023-04-22T23:33:25.731Z,12.98
2023-04-22T23:35:56.657Z,13.60
2023-04-22T23:38:23.426Z,13.52
2023-04-22T23:40:49.840Z,13.68
2023-04-22T23:43:16.778Z,13.70
2023-04-22T23:45:43.154Z,13.50
2023-04-22T23:48:09.727Z,13.60
2023-04-22T23:50:36.187Z,14.10
2023-04-22T23:53:02.824Z,12.93
2023-04-22T23:55:29.924Z,13.55
2023-04-22T23:57:57.887Z,12.77
